Ash Lake, Minnesota
Current Conditions -  °F | °C
As of 4:33 AM on Thursday 23 Oct 2014 (Local Time) from KORB Reporting Station
Overcast Overcast  
Wind Chill: 44°   Ceiling: 1000
Heat Index: 46°   Visibility: 10mi
Dew Point: 43°   Wind: 6mph
Humidity: 87%   Direction: 160°SSE
Pressure: 29.9"   Gusts: NA
Location:  48.1455°N, 92.8504°W
Report Text: KORB 230933Z AUTO 16005KT 10SM OVC010 08/06 A2990 RMK AO2
Loading
Personal Weather Stations






























Interactive Weather Map
Tropical Storm Tracking
New forecast layout! Learn more

10-Day Weather Forecast

Advertisements
Track Severe Weather on mobile